Hauptseite
METAR-TAF:

METAR-TAF

Flughäfen :

Militärflugplatz Leeuwarden

Leeuwarden, Niederlande

Breite: 53-13N, Länge: 005-46E, Höhe: 1 m

Beobachtung

Neuester Wetterbericht von vor 25 Minuten, um 17:25 UTC
Wind 8 kt aus West
Temperatur 10°C
Luftfeuchtigkeit 66%
Luftdruck 1020 hPa
Sichtweite 10 km oder mehr
Leicht bewölkt in der Höhe von 2800 ft
Geschlossene Wolkendecke in der Höhe von 22000 ft

METAR: EHLW 141725Z AUTO 26008KT 9999 FEW028 OVC220 10/04 Q1020 BLU

Zeit: 19:50 (17:50 UTC)

Prognose

Neuester Wetterbericht von vor 1 Stunde und 21 Minuten, um 16:29 UTC
Gültige Prognose vom 14 um 17 UTC bis 15 um 05 UTC
Wind 10 kt aus West
Sichtweite 10 km oder mehr
Leicht bewölkt in der Höhe von 2500 ft
Aufgelockert bewölkt in der Höhe von 3200 ft
Übergehend zu
vom 14 um 19 UTC bis 14 um 22 UTC
Wind 6 kt aus Süd

TAF: EHLW 141629Z 1417/1505 27010KT 9999 FEW025 SCT032 BECMG 1419/1422 19006KT

Wetterbeobachtungen und Prognosen von mehr als 4000 Flughäfen (METAR und TAF Bericht).

Die verfügbaren Stationen werden durch gelbe und rote Markierungen auf der Karte dargestellt.

Führen Sie die Maus auf sie, um den Namen der Station zu sehen.

Darauf klicken, um die Beobachtung von Wetterbeobachtungen und Prognosen zu sehen.

Um die Karte zu ändern : klicken Sie auf den grünen Tasten mit einem schwarzen Kreuz Zum Vergrößern, auf den grünen Button mit einem Gedankenstrich zu verkleinern, oder auf die grünen Pfeile für benachbarte Karten.


METAR-TAF: